Time;durP1;ratioP1;P1;durP2;ratioP2;P2;SDS_P1;SDS_P2;PMS_P1;PMS_P2;Temp;Humidity;BMP_temperature;BMP_pressure;BME280_temperature;BME280_humidity;BME280_pressure;Samples;Min_cycle;Max_cycle;Signal;HPM_P1;HPM_P2
2024/01/07 00:02:24;;;;;;;17.57;8.03;;;4.20;99.90;;;;;;5012230;28;20713;-70
2024/01/07 00:04:49;;;;;;;17.93;7.90;;;4.10;99.90;;;;;;4999813;28;20279;-71
2024/01/07 00:07:15;;;;;;;19.73;8.93;;;4.10;99.90;;;;;;4998508;28;20684;-71
2024/01/07 00:09:40;;;;;;;16.30;8.40;;;4.10;99.90;;;;;;5001578;28;20188;-71
2024/01/07 00:12:06;;;;;;;12.77;7.00;;;4.10;99.90;;;;;;4990606;28;20239;-71
2024/01/07 00:14:32;;;;;;;12.10;7.57;;;4.10;99.90;;;;;;4994479;28;20283;-71
2024/01/07 00:16:57;;;;;;;20.83;8.97;;;4.10;99.90;;;;;;4993007;28;20230;-71
2024/01/07 00:19:23;;;;;;;13.97;7.70;;;4.10;99.90;;;;;;4990911;28;20221;-71
2024/01/07 00:21:49;;;;;;;17.47;7.80;;;4.10;99.90;;;;;;5012460;28;20830;-71
2024/01/07 00:24:15;;;;;;;17.20;8.07;;;4.10;99.90;;;;;;4994706;28;20270;-71
2024/01/07 00:26:40;;;;;;;16.37;9.10;;;4.10;99.90;;;;;;5007368;28;20556;-71
2024/01/07 00:29:06;;;;;;;16.40;8.10;;;4.10;99.90;;;;;;5014027;28;20195;-71
2024/01/07 00:31:31;;;;;;;16.23;6.90;;;4.30;99.90;;;;;;4993999;28;20238;-71
2024/01/07 00:33:57;;;;;;;19.47;8.27;;;4.10;99.90;;;;;;5006152;28;20226;-71
2024/01/07 00:36:22;;;;;;;19.60;7.90;;;4.10;99.90;;;;;;4991324;28;20179;-71
2024/01/07 00:38:48;;;;;;;17.30;8.63;;;4.10;99.90;;;;;;5006555;28;20198;-71
2024/01/07 00:41:13;;;;;;;18.63;7.90;;;4.10;99.90;;;;;;4994268;28;20263;-71
2024/01/07 00:43:40;;;;;;;13.10;6.53;;;4.10;99.90;;;;;;5002085;28;20270;-71
2024/01/07 00:46:06;;;;;;;17.20;8.67;;;4.10;99.90;;;;;;5007936;28;20203;-70
2024/01/07 00:48:31;;;;;;;11.00;5.97;;;4.10;99.90;;;;;;5008572;28;20765;-71
2024/01/07 00:50:57;;;;;;;19.33;7.20;;;4.10;99.90;;;;;;5012845;28;20522;-70
2024/01/07 00:53:22;;;;;;;20.53;8.57;;;4.10;99.90;;;;;;5001320;28;20298;-71
2024/01/07 00:55:48;;;;;;;14.10;8.03;;;4.10;99.90;;;;;;4998875;28;20263;-71
2024/01/07 00:58:13;;;;;;;18.23;7.10;;;4.10;99.90;;;;;;4994420;28;20183;-71
2024/01/07 01:00:38;;;;;;;11.40;7.13;;;4.20;99.90;;;;;;4992425;28;20231;-70
2024/01/07 01:03:04;;;;;;;15.13;6.07;;;4.20;99.90;;;;;;4990804;28;20195;-70
2024/01/07 01:05:29;;;;;;;21.83;9.37;;;4.10;99.90;;;;;;4992490;28;20255;-71
2024/01/07 01:07:55;;;;;;;20.03;7.13;;;4.10;99.90;;;;;;4998292;28;20197;-71
2024/01/07 01:10:21;;;;;;;19.47;8.17;;;4.20;99.90;;;;;;4998458;28;20413;-71
2024/01/07 01:12:47;;;;;;;20.17;9.30;;;4.10;99.90;;;;;;4999964;28;20180;-70
2024/01/07 01:15:12;;;;;;;29.00;9.10;;;4.10;99.90;;;;;;4988618;28;20526;-71
2024/01/07 01:17:38;;;;;;;12.00;6.60;;;4.20;99.90;;;;;;4992675;28;20266;-71
2024/01/07 01:20:04;;;;;;;14.40;6.83;;;4.10;99.90;;;;;;5007798;28;20187;-70
2024/01/07 01:22:29;;;;;;;15.10;7.53;;;4.10;99.90;;;;;;5004875;28;20176;-70
2024/01/07 01:24:56;;;;;;;17.80;8.87;;;4.00;99.90;;;;;;5011759;28;20537;-71
2024/01/07 01:27:21;;;;;;;13.60;7.27;;;4.00;99.90;;;;;;4995004;28;20253;-70
2024/01/07 01:29:47;;;;;;;15.03;8.07;;;3.90;99.90;;;;;;5000056;28;20427;-70
2024/01/07 01:32:12;;;;;;;15.33;7.03;;;4.00;99.90;;;;;;5004269;28;20183;-70
2024/01/07 01:34:40;;;;;;;16.63;7.20;;;4.00;99.90;;;;;;4998916;28;20179;-70
2024/01/07 01:37:05;;;;;;;25.33;8.40;;;3.90;99.90;;;;;;5009260;28;20182;-71
2024/01/07 01:39:31;;;;;;;20.53;9.23;;;3.90;99.90;;;;;;5011892;28;20448;-70
2024/01/07 01:41:58;;;;;;;20.13;8.70;;;3.90;99.90;;;;;;5000693;28;20216;-70
2024/01/07 01:44:23;;;;;;;22.60;9.77;;;3.90;99.90;;;;;;5001690;28;20184;-70
2024/01/07 01:46:49;;;;;;;22.23;11.17;;;3.90;99.90;;;;;;5000535;28;20460;-71
2024/01/07 01:49:15;;;;;;;24.90;8.60;;;3.90;99.90;;;;;;4994261;28;20184;-70
2024/01/07 01:51:41;;;;;;;28.43;9.60;;;3.80;99.90;;;;;;4998009;28;20541;-70
2024/01/07 01:54:06;;;;;;;28.60;10.47;;;3.80;99.90;;;;;;5012087;28;20183;-70
2024/01/07 01:56:33;;;;;;;37.50;12.53;;;3.80;99.90;;;;;;5000182;28;20467;-70
2024/01/07 01:58:59;;;;;;;22.97;10.80;;;3.80;99.90;;;;;;5012327;28;20179;-71
2024/01/07 02:01:25;;;;;;;27.60;8.43;;;3.70;99.90;;;;;;5009632;28;20426;-71
2024/01/07 02:03:52;;;;;;;20.43;9.20;;;3.80;99.90;;;;;;4998070;28;20425;-71
2024/01/07 02:06:18;;;;;;;26.03;8.77;;;3.80;99.90;;;;;;4988621;28;20192;-69
2024/01/07 02:08:44;;;;;;;21.40;7.83;;;3.80;99.90;;;;;;5005729;28;20417;-69
2024/01/07 02:11:21;;;;;;;21.40;8.90;;;3.70;99.90;;;;;;4985958;28;21022;-68
2024/01/07 02:13:47;;;;;;;20.63;7.80;;;3.80;99.90;;;;;;5008277;28;20418;-69
2024/01/07 02:16:14;;;;;;;22.07;7.70;;;3.80;99.90;;;;;;5011810;28;20417;-68
2024/01/07 02:18:41;;;;;;;16.47;4.93;;;3.80;99.90;;;;;;5002753;28;20470;-69
2024/01/07 02:21:08;;;;;;;24.20;8.73;;;3.70;99.90;;;;;;5015425;28;20448;-69
2024/01/07 02:23:34;;;;;;;24.73;8.03;;;3.70;99.90;;;;;;5013809;28;20480;-68
2024/01/07 02:25:59;;;;;;;15.50;7.30;;;3.70;99.90;;;;;;4996540;28;20961;-68
2024/01/07 02:28:25;;;;;;;23.03;9.13;;;3.60;99.90;;;;;;4996665;28;20195;-69
2024/01/07 02:30:50;;;;;;;20.87;8.20;;;3.60;99.90;;;;;;4997258;28;20190;-69
2024/01/07 02:33:16;;;;;;;18.70;7.00;;;3.60;99.90;;;;;;4992815;28;20173;-69
2024/01/07 02:35:41;;;;;;;28.87;8.70;;;3.60;99.90;;;;;;5004308;28;20191;-69
2024/01/07 02:38:07;;;;;;;24.33;8.20;;;3.60;99.90;;;;;;4998360;28;20196;-69
2024/01/07 02:40:32;;;;;;;24.97;7.83;;;3.50;99.90;;;;;;5014991;28;20199;-68
2024/01/07 02:42:58;;;;;;;20.40;8.00;;;3.50;99.90;;;;;;5001175;28;20200;-68
2024/01/07 02:45:24;;;;;;;20.93;8.80;;;3.50;99.90;;;;;;5015164;28;20613;-68
2024/01/07 02:47:49;;;;;;;29.83;12.33;;;3.50;99.90;;;;;;5009098;28;20552;-68
2024/01/07 02:50:16;;;;;;;20.30;8.10;;;3.50;99.90;;;;;;4996149;28;20680;-68
2024/01/07 02:52:41;;;;;;;18.27;8.87;;;3.50;99.90;;;;;;5007583;28;20190;-68
2024/01/07 02:55:07;;;;;;;38.07;10.17;;;3.60;99.90;;;;;;4996376;28;20434;-68
2024/01/07 02:57:33;;;;;;;23.70;9.97;;;3.60;99.90;;;;;;4996044;28;20219;-68
2024/01/07 02:59:58;;;;;;;27.17;9.13;;;3.60;99.90;;;;;;4994926;28;20924;-68
2024/01/07 03:02:24;;;;;;;34.77;10.30;;;3.60;99.90;;;;;;4995863;28;20192;-68
2024/01/07 03:04:49;;;;;;;24.93;9.93;;;3.60;99.90;;;;;;4995921;28;20183;-69
2024/01/07 03:07:15;;;;;;;26.07;10.70;;;3.60;99.90;;;;;;5002695;28;20179;-69
2024/01/07 03:09:40;;;;;;;28.80;11.00;;;3.60;99.90;;;;;;4995692;28;20198;-68
2024/01/07 03:12:06;;;;;;;20.50;9.90;;;3.60;99.90;;;;;;4990756;28;20191;-68
2024/01/07 03:14:31;;;;;;;24.57;9.73;;;3.60;99.90;;;;;;5007463;28;20279;-68
2024/01/07 03:16:57;;;;;;;19.70;9.60;;;3.60;99.90;;;;;;4995582;28;20194;-68
2024/01/07 03:19:22;;;;;;;30.10;10.77;;;3.60;99.90;;;;;;5014553;28;20585;-69
2024/01/07 03:21:49;;;;;;;29.20;11.10;;;3.70;99.90;;;;;;5000236;28;20200;-69
2024/01/07 03:24:14;;;;;;;28.13;11.37;;;3.70;99.90;;;;;;5005513;28;20274;-68
2024/01/07 03:26:40;;;;;;;18.17;10.10;;;3.60;99.90;;;;;;4995388;28;21174;-68
2024/01/07 03:29:05;;;;;;;22.27;9.27;;;4.40;99.90;;;;;;4994596;28;20192;-69
2024/01/07 03:31:31;;;;;;;24.20;9.60;;;3.60;99.90;;;;;;4993926;28;20822;-69
2024/01/07 03:33:56;;;;;;;27.30;11.00;;;3.60;99.90;;;;;;4995382;28;20814;-68
2024/01/07 03:36:22;;;;;;;26.10;11.97;;;3.60;99.90;;;;;;5005686;28;20266;-68
2024/01/07 03:38:48;;;;;;;22.50;8.50;;;3.60;99.90;;;;;;5015081;28;20218;-68
2024/01/07 03:41:20;;;;;;;25.53;9.70;;;3.60;99.90;;;;;;5001886;28;20829;-68
2024/01/07 03:43:49;;;;;;;36.30;11.07;;;3.60;99.90;;;;;;5014984;28;20199;-68
2024/01/07 03:46:15;;;;;;;25.73;8.83;;;4.20;99.90;;;;;;5014570;28;20475;-68
2024/01/07 03:48:41;;;;;;;25.17;11.17;;;3.60;99.90;;;;;;5001027;28;20423;-68
2024/01/07 03:51:07;;;;;;;13.13;7.30;;;3.60;99.90;;;;;;4994663;28;20981;-68
2024/01/07 03:53:33;;;;;;;18.57;8.60;;;3.60;99.90;;;;;;4990704;28;20423;-68
2024/01/07 03:55:58;;;;;;;21.10;8.70;;;3.60;99.90;;;;;;4995238;28;20266;-68
2024/01/07 03:58:24;;;;;;;21.77;9.23;;;3.60;99.90;;;;;;4988396;28;20838;-69
2024/01/07 04:00:49;;;;;;;20.67;10.50;;;3.60;99.90;;;;;;4992156;28;20270;-69
2024/01/07 04:03:15;;;;;;;22.97;10.97;;;3.60;99.90;;;;;;5004721;28;20188;-68
2024/01/07 04:05:40;;;;;;;20.30;10.47;;;3.60;99.90;;;;;;5004557;28;20299;-68
2024/01/07 04:08:09;;;;;;;26.13;10.20;;;3.60;99.90;;;;;;4996645;28;20190;-68
2024/01/07 04:10:34;;;;;;;22.90;8.97;;;3.60;99.90;;;;;;5011412;28;20246;-68
2024/01/07 04:13:00;;;;;;;42.33;11.07;;;3.60;99.90;;;;;;5004325;28;20896;-68
2024/01/07 04:15:25;;;;;;;26.10;9.60;;;3.70;99.90;;;;;;4994098;28;20187;-68
2024/01/07 04:17:51;;;;;;;15.40;8.97;;;3.60;99.90;;;;;;5007095;28;20227;-68
2024/01/07 04:20:16;;;;;;;17.53;9.20;;;3.60;99.90;;;;;;5000696;28;20656;-69
2024/01/07 04:22:42;;;;;;;23.17;8.97;;;3.60;99.90;;;;;;4999085;28;20198;-69
2024/01/07 04:25:08;;;;;;;21.47;10.07;;;3.60;99.90;;;;;;5014157;28;20274;-69
2024/01/07 04:27:39;;;;;;;22.13;10.57;;;3.60;99.90;;;;;;5014237;28;20211;-68
2024/01/07 04:30:06;;;;;;;18.80;8.57;;;3.60;99.90;;;;;;4997000;28;20540;-69
2024/01/07 04:32:32;;;;;;;20.80;9.23;;;3.60;99.90;;;;;;4987133;28;20489;-69
2024/01/07 04:34:57;;;;;;;22.67;10.07;;;3.60;99.90;;;;;;4993991;28;20415;-69
2024/01/07 04:37:24;;;;;;;21.03;8.30;;;3.50;99.90;;;;;;5001650;28;20431;-69
2024/01/07 04:39:49;;;;;;;19.80;10.30;;;3.60;99.90;;;;;;5003658;28;20198;-69
2024/01/07 04:42:15;;;;;;;14.43;8.80;;;3.60;99.90;;;;;;4993485;28;20430;-69
2024/01/07 04:44:41;;;;;;;17.47;8.10;;;3.60;99.90;;;;;;4993565;28;20187;-70
2024/01/07 04:47:35;;;;;;;12.63;7.20;;;3.60;99.90;;;;;;4992774;28;20463;-69
2024/01/07 04:50:01;;;;;;;15.80;7.60;;;3.50;99.90;;;;;;4983105;28;20188;-69
2024/01/07 04:52:27;;;;;;;24.53;8.43;;;3.70;99.90;;;;;;4994002;28;20430;-69
2024/01/07 04:54:54;;;;;;;17.60;9.23;;;3.50;99.90;;;;;;5008688;28;20422;-69
2024/01/07 04:57:20;;;;;;;14.93;7.90;;;3.50;99.90;;;;;;5012875;28;20209;-69
2024/01/07 04:59:46;;;;;;;15.73;7.50;;;3.50;99.90;;;;;;4989355;28;20447;-69
2024/01/07 05:02:12;;;;;;;19.80;8.30;;;3.50;99.90;;;;;;4992524;28;20447;-69
2024/01/07 05:04:37;;;;;;;19.90;10.13;;;3.50;99.90;;;;;;5013829;28;20480;-69
2024/01/07 05:07:03;;;;;;;20.80;8.50;;;3.50;99.90;;;;;;5001944;28;20215;-69
2024/01/07 05:09:29;;;;;;;20.00;8.47;;;3.50;99.90;;;;;;5006289;28;20185;-69
2024/01/07 05:11:55;;;;;;;17.67;8.50;;;4.60;99.90;;;;;;4993861;28;20558;-68
2024/01/07 05:14:22;;;;;;;18.70;8.70;;;3.50;99.90;;;;;;4996088;28;20271;-68
2024/01/07 05:16:47;;;;;;;27.07;10.53;;;4.20;99.90;;;;;;4999714;28;20183;-69
2024/01/07 05:19:13;;;;;;;19.77;7.53;;;3.50;99.90;;;;;;4992882;28;20427;-68
2024/01/07 05:21:38;;;;;;;15.30;7.33;;;3.50;99.90;;;;;;4993335;28;20215;-69
2024/01/07 05:24:04;;;;;;;19.57;7.50;;;3.50;99.90;;;;;;4993695;28;20569;-69
2024/01/07 05:26:30;;;;;;;11.70;7.03;;;3.40;99.90;;;;;;4993387;28;20223;-69
2024/01/07 05:28:56;;;;;;;14.73;7.17;;;3.40;99.90;;;;;;5001873;28;20470;-68
2024/01/07 05:31:22;;;;;;;15.00;7.40;;;3.40;99.90;;;;;;4988667;28;20208;-69
2024/01/07 05:33:47;;;;;;;16.17;6.50;;;3.50;99.90;;;;;;5006204;28;20215;-69
2024/01/07 05:36:13;;;;;;;14.40;7.60;;;3.50;99.90;;;;;;4992355;28;20442;-69
2024/01/07 05:38:39;;;;;;;18.60;7.00;;;3.40;99.90;;;;;;4998689;28;20199;-70
2024/01/07 05:41:05;;;;;;;22.03;8.20;;;3.40;99.90;;;;;;5000465;28;20229;-69
2024/01/07 05:43:30;;;;;;;14.90;6.70;;;3.40;99.90;;;;;;4992537;28;20199;-69
2024/01/07 05:45:56;;;;;;;18.53;6.23;;;3.50;99.90;;;;;;4992741;28;20210;-69
2024/01/07 05:48:22;;;;;;;9.50;5.30;;;3.40;99.90;;;;;;5000115;28;20234;-68
2024/01/07 05:50:48;;;;;;;12.87;6.93;;;3.40;99.90;;;;;;4992832;28;20191;-69
2024/01/07 05:53:13;;;;;;;15.30;6.30;;;3.40;99.90;;;;;;4986546;28;20189;-69
2024/01/07 05:55:39;;;;;;;12.50;6.50;;;3.40;99.90;;;;;;4993107;28;20195;-69
2024/01/07 05:58:04;;;;;;;19.00;7.07;;;3.50;99.90;;;;;;4996963;28;20203;-68
2024/01/07 06:00:30;;;;;;;11.30;6.53;;;3.40;99.90;;;;;;4992952;28;20535;-69
2024/01/07 06:02:56;;;;;;;8.70;5.43;;;3.40;99.90;;;;;;4987066;28;20258;-69
2024/01/07 06:05:21;;;;;;;14.23;6.40;;;3.40;99.90;;;;;;5012189;28;20458;-68
2024/01/07 06:07:47;;;;;;;14.07;6.47;;;3.40;99.90;;;;;;4993643;28;20184;-68
2024/01/07 06:10:12;;;;;;;13.17;6.80;;;3.30;99.90;;;;;;4993002;28;20196;-68
2024/01/07 06:12:38;;;;;;;12.23;5.50;;;3.30;99.90;;;;;;5005953;28;20202;-69
2024/01/07 06:15:05;;;;;;;8.23;5.70;;;3.40;99.90;;;;;;4999119;28;20242;-69
2024/01/07 06:17:31;;;;;;;12.13;6.10;;;3.30;99.90;;;;;;4983992;28;20218;-69
2024/01/07 06:19:56;;;;;;;11.30;5.50;;;3.30;99.90;;;;;;5012344;28;20517;-69
2024/01/07 06:22:22;;;;;;;10.40;4.67;;;3.30;99.90;;;;;;5005437;28;20208;-69
2024/01/07 06:24:47;;;;;;;10.17;6.33;;;3.30;99.90;;;;;;4998633;28;20191;-69
2024/01/07 06:27:13;;;;;;;12.63;6.90;;;3.30;99.90;;;;;;5012709;28;20211;-69
2024/01/07 06:29:39;;;;;;;13.07;6.73;;;3.30;99.90;;;;;;4999296;28;20245;-69
2024/01/07 06:32:04;;;;;;;11.97;6.60;;;3.30;99.90;;;;;;4994865;28;20644;-69
2024/01/07 06:34:30;;;;;;;10.87;6.07;;;3.30;99.90;;;;;;5003838;28;20222;-69
2024/01/07 06:36:55;;;;;;;16.13;7.47;;;3.30;99.90;;;;;;5005485;28;20187;-69
2024/01/07 06:39:21;;;;;;;11.10;5.67;;;3.30;99.90;;;;;;5002457;28;20196;-69
2024/01/07 06:41:46;;;;;;;15.37;7.90;;;3.30;99.90;;;;;;4998373;28;20194;-69
2024/01/07 06:44:12;;;;;;;10.20;5.67;;;3.30;99.90;;;;;;4999974;28;20196;-69
2024/01/07 06:46:37;;;;;;;13.20;7.50;;;3.30;99.90;;;;;;4998091;28;20207;-69
2024/01/07 06:49:03;;;;;;;14.50;7.23;;;3.30;99.90;;;;;;4995311;28;20574;-69
2024/01/07 06:51:28;;;;;;;13.40;6.33;;;3.30;99.90;;;;;;5005838;28;20226;-69
2024/01/07 06:53:54;;;;;;;15.07;7.03;;;3.30;99.90;;;;;;5004240;28;20865;-69
2024/01/07 06:56:19;;;;;;;15.80;7.70;;;3.30;99.90;;;;;;4999066;28;20187;-69
2024/01/07 06:58:45;;;;;;;15.47;7.67;;;3.30;99.90;;;;;;5000036;28;20192;-69
2024/01/07 07:01:11;;;;;;;15.70;7.50;;;3.80;99.90;;;;;;4993244;28;20649;-69
2024/01/07 07:03:37;;;;;;;17.30;7.73;;;3.30;99.90;;;;;;5005687;28;20210;-69
2024/01/07 07:06:02;;;;;;;15.00;6.67;;;3.30;99.90;;;;;;4993569;28;20546;-69
2024/01/07 07:08:28;;;;;;;13.53;7.87;;;3.30;99.90;;;;;;4996065;28;20164;-69
2024/01/07 07:10:53;;;;;;;13.03;7.23;;;3.30;99.90;;;;;;4995846;28;20796;-69
2024/01/07 07:13:19;;;;;;;11.67;6.90;;;3.30;99.90;;;;;;5007621;28;20608;-69
2024/01/07 07:15:44;;;;;;;12.27;6.80;;;3.30;99.90;;;;;;4996663;28;20192;-69
2024/01/07 07:18:10;;;;;;;14.30;7.77;;;3.20;99.90;;;;;;4994087;28;20669;-69
2024/01/07 07:20:35;;;;;;;12.77;7.10;;;3.20;99.90;;;;;;4999084;28;20199;-69
2024/01/07 07:23:01;;;;;;;15.37;8.10;;;3.20;99.90;;;;;;5003484;28;20218;-69
2024/01/07 07:25:26;;;;;;;18.27;8.10;;;3.20;99.90;;;;;;5002031;28;20303;-69
2024/01/07 07:27:52;;;;;;;14.93;9.00;;;3.20;99.90;;;;;;4995678;28;20183;-69
2024/01/07 07:30:18;;;;;;;10.83;7.30;;;3.20;99.90;;;;;;4997278;28;20183;-68
2024/01/07 07:32:44;;;;;;;17.73;8.90;;;3.20;99.90;;;;;;5007912;28;20257;-68
2024/01/07 07:35:09;;;;;;;13.67;7.70;;;3.10;99.90;;;;;;4997506;28;20459;-69
2024/01/07 07:37:35;;;;;;;13.30;6.57;;;3.20;99.90;;;;;;4995214;28;20227;-69
2024/01/07 07:40:01;;;;;;;14.20;7.17;;;3.10;99.90;;;;;;4994953;28;20664;-69
2024/01/07 07:42:26;;;;;;;14.50;7.60;;;3.10;99.90;;;;;;5002935;28;20191;-69
2024/01/07 07:44:52;;;;;;;21.50;8.43;;;3.10;99.90;;;;;;5005015;28;20223;-68
2024/01/07 07:47:18;;;;;;;21.17;8.20;;;3.10;99.90;;;;;;4994834;28;20220;-69
2024/01/07 07:49:43;;;;;;;14.03;5.63;;;3.60;99.90;;;;;;4995556;28;20275;-69
2024/01/07 07:52:09;;;;;;;12.30;6.73;;;3.10;99.90;;;;;;4994797;28;20502;-68
2024/01/07 07:54:37;;;;;;;21.70;7.60;;;3.00;99.90;;;;;;4990770;28;20179;-69
2024/01/07 07:57:03;;;;;;;15.53;6.67;;;3.00;99.90;;;;;;4994746;28;20202;-69
2024/01/07 07:59:28;;;;;;;13.27;6.70;;;3.00;99.90;;;;;;4994360;28;20434;-69
2024/01/07 08:01:54;;;;;;;15.27;6.90;;;2.90;99.90;;;;;;5013933;28;20266;-69
2024/01/07 08:04:19;;;;;;;11.53;6.83;;;2.90;99.90;;;;;;5014768;28;20179;-68
2024/01/07 08:06:45;;;;;;;12.07;6.27;;;2.90;99.90;;;;;;5005116;28;20294;-69
2024/01/07 08:09:10;;;;;;;12.50;6.93;;;2.90;99.90;;;;;;4991640;28;20196;-69
2024/01/07 08:11:36;;;;;;;19.90;6.60;;;2.90;99.90;;;;;;5005831;28;20628;-69
2024/01/07 08:14:01;;;;;;;11.10;6.30;;;2.90;99.90;;;;;;4997502;28;20191;-69
2024/01/07 08:16:27;;;;;;;17.50;6.90;;;2.90;99.90;;;;;;4997193;28;20195;-69
2024/01/07 08:18:56;;;;;;;15.40;6.23;;;2.90;99.90;;;;;;5002515;28;20302;-69
2024/01/07 08:21:22;;;;;;;14.00;5.97;;;2.80;99.90;;;;;;5002610;28;20287;-69
2024/01/07 08:23:48;;;;;;;12.90;7.33;;;4.30;99.90;;;;;;5007374;28;20513;-69
2024/01/07 08:26:19;;;;;;;13.07;5.47;;;2.80;99.90;;;;;;4994394;28;20550;-68
2024/01/07 08:28:44;;;;;;;14.87;5.20;;;2.80;99.90;;;;;;5003077;28;20208;-69
2024/01/07 08:31:10;;;;;;;11.00;5.63;;;2.80;99.90;;;;;;4996561;28;20454;-69
2024/01/07 08:33:35;;;;;;;10.27;5.67;;;2.80;99.90;;;;;;4998351;28;20191;-69
2024/01/07 08:36:01;;;;;;;19.33;8.20;;;2.70;99.90;;;;;;5013576;28;20201;-69
2024/01/07 08:38:26;;;;;;;13.00;6.70;;;2.80;99.90;;;;;;5009486;28;20191;-69
2024/01/07 08:40:52;;;;;;;13.93;6.50;;;2.70;99.90;;;;;;5000331;28;20195;-69
2024/01/07 08:43:17;;;;;;;10.43;5.67;;;2.80;99.90;;;;;;4997830;28;20195;-69
2024/01/07 08:45:43;;;;;;;9.17;5.10;;;2.60;99.90;;;;;;5013516;28;20207;-68
2024/01/07 08:48:09;;;;;;;12.53;5.50;;;;;;;;;;5005155;28;20179;-69
2024/01/07 08:50:35;;;;;;;11.10;5.40;;;;;;;;;;4994014;28;20254;-69
2024/01/07 08:53:01;;;;;;;10.87;4.80;;;;;;;;;;5005270;28;20415;-70
2024/01/07 08:55:27;;;;;;;10.13;5.00;;;;;;;;;;4993205;28;20904;-70
2024/01/07 08:57:53;;;;;;;11.23;4.70;;;2.70;99.90;;;;;;4993680;28;20188;-70
2024/01/07 09:00:18;;;;;;;10.80;5.03;;;2.60;99.90;;;;;;5000320;28;20502;-70
2024/01/07 09:02:44;;;;;;;8.77;4.73;;;2.70;99.90;;;;;;5005931;28;20605;-70
2024/01/07 09:05:11;;;;;;;9.50;4.57;;;2.60;99.90;;;;;;5001896;28;20422;-68
2024/01/07 09:07:37;;;;;;;8.70;4.57;;;2.60;99.90;;;;;;4998636;28;20183;-68
2024/01/07 09:10:03;;;;;;;18.27;6.03;;;2.60;99.90;;;;;;5012517;28;20449;-70
2024/01/07 09:12:28;;;;;;;10.00;4.60;;;2.60;99.90;;;;;;4998101;28;20731;-71
2024/01/07 09:14:54;;;;;;;9.17;4.67;;;2.70;99.90;;;;;;5012786;28;20280;-71
2024/01/07 09:17:19;;;;;;;14.97;4.50;;;2.70;99.90;;;;;;4993958;28;20239;-71
2024/01/07 09:19:45;;;;;;;10.30;5.10;;;2.80;99.90;;;;;;5003733;28;20222;-70
2024/01/07 09:22:11;;;;;;;10.57;5.57;;;2.80;99.90;;;;;;5006954;28;20207;-71
2024/01/07 09:24:37;;;;;;;8.70;4.67;;;2.70;99.90;;;;;;4987165;28;20278;-71
2024/01/07 09:27:02;;;;;;;11.53;5.73;;;2.70;99.90;;;;;;5002673;28;20928;-71
2024/01/07 09:29:28;;;;;;;12.27;5.60;;;2.60;99.90;;;;;;4996061;28;20194;-69
2024/01/07 09:31:53;;;;;;;9.27;5.10;;;2.60;99.90;;;;;;4999995;28;20250;-68
2024/01/07 09:34:19;;;;;;;12.77;5.80;;;2.70;99.90;;;;;;5002875;28;20179;-68
2024/01/07 09:36:44;;;;;;;12.13;4.83;;;2.70;99.90;;;;;;4994547;28;20740;-68
2024/01/07 09:39:10;;;;;;;8.93;4.67;;;2.70;99.90;;;;;;4990488;28;20817;-70
2024/01/07 09:41:35;;;;;;;8.77;4.40;;;2.70;99.90;;;;;;4994872;28;20188;-71
2024/01/07 09:44:02;;;;;;;12.40;6.30;;;2.70;99.90;;;;;;4988521;28;20636;-69
2024/01/07 09:46:29;;;;;;;8.77;4.30;;;2.70;99.90;;;;;;4994971;28;20210;-69
2024/01/07 09:48:55;;;;;;;7.50;3.53;;;2.70;99.90;;;;;;4980600;28;20428;-70
2024/01/07 09:51:22;;;;;;;8.60;4.53;;;2.60;99.90;;;;;;4991945;28;20470;-71
2024/01/07 09:53:50;;;;;;;6.23;3.70;;;2.60;99.90;;;;;;5002291;28;20226;-71
2024/01/07 09:56:23;;;;;;;10.73;4.13;;;2.60;99.90;;;;;;4992130;28;20431;-71
2024/01/07 09:58:49;;;;;;;15.80;6.13;;;2.70;99.90;;;;;;4987691;28;20469;-69
2024/01/07 10:01:17;;;;;;;9.33;4.20;;;2.80;99.90;;;;;;4990047;28;20993;-69
2024/01/07 10:03:42;;;;;;;11.27;4.43;;;2.90;99.90;;;;;;4985699;28;20435;-70
2024/01/07 10:06:08;;;;;;;4.53;3.00;;;2.90;99.90;;;;;;4987306;28;20823;-71
2024/01/07 10:08:33;;;;;;;13.17;4.57;;;2.90;99.90;;;;;;4986847;28;20617;-70
2024/01/07 10:11:01;;;;;;;7.20;3.50;;;2.90;99.90;;;;;;4988332;28;20691;-70
2024/01/07 10:13:27;;;;;;;8.50;4.40;;;3.00;99.90;;;;;;4989102;28;20538;-70
2024/01/07 10:15:52;;;;;;;5.23;3.03;;;3.10;99.90;;;;;;5000719;28;20429;-70
2024/01/07 10:18:19;;;;;;;6.60;3.20;;;;;;;;;;4991208;28;20285;-71
2024/01/07 10:20:44;;;;;;;16.33;3.57;;;3.10;99.90;;;;;;4991610;28;20194;-71
2024/01/07 10:23:10;;;;;;;8.30;3.50;;;3.20;99.90;;;;;;5000487;28;20426;-70
2024/01/07 10:25:37;;;;;;;7.57;3.50;;;3.10;99.90;;;;;;4985244;28;20657;-71
2024/01/07 10:28:03;;;;;;;5.93;3.47;;;3.10;99.90;;;;;;4981566;28;20571;-74
2024/01/07 10:30:29;;;;;;;4.93;3.50;;;3.00;99.90;;;;;;4994358;28;20445;-70
2024/01/07 10:32:58;;;;;;;5.00;3.30;;;3.80;99.90;;;;;;4992059;28;20211;-70
2024/01/07 10:35:35;;;;;;;11.43;4.73;;;2.90;99.90;;;;;;5003827;28;20431;-69
2024/01/07 10:38:01;;;;;;;6.63;3.17;;;2.80;99.90;;;;;;4990692;28;20420;-68
2024/01/07 10:40:29;;;;;;;10.13;3.70;;;2.70;99.90;;;;;;4986244;28;20510;-70
2024/01/07 10:42:55;;;;;;;10.47;4.30;;;4.00;99.90;;;;;;4995815;28;20811;-68
2024/01/07 10:45:22;;;;;;;8.93;3.83;;;2.70;99.90;;;;;;4994753;28;20425;-67
2024/01/07 10:47:50;;;;;;;7.97;4.13;;;2.70;99.90;;;;;;5002434;28;20506;-67
2024/01/07 10:50:17;;;;;;;6.77;3.40;;;2.60;99.90;;;;;;4996628;28;20477;-70
2024/01/07 10:52:48;;;;;;;8.30;3.90;;;2.60;99.90;;;;;;4999318;28;20469;-70
2024/01/07 10:55:17;;;;;;;5.93;3.60;;;2.60;99.90;;;;;;4994696;28;20752;-70
2024/01/07 10:57:45;;;;;;;7.80;4.00;;;3.50;99.90;;;;;;4995253;28;21159;-70
2024/01/07 11:00:18;;;;;;;9.53;3.87;;;2.60;99.90;;;;;;4993760;28;20486;-70
2024/01/07 11:03:11;;;;;;;10.67;5.33;;;2.50;99.90;;;;;;5008280;28;20506;-70
2024/01/07 11:05:44;;;;;;;12.53;4.93;;;2.50;99.90;;;;;;4986349;28;20528;-70
2024/01/07 11:08:34;;;;;;;9.00;4.23;;;2.40;99.90;;;;;;4982255;28;20423;-70
2024/01/07 11:11:23;;;;;;;4.90;3.40;;;2.30;99.90;;;;;;5004420;28;20991;-70
2024/01/07 11:13:49;;;;;;;6.77;3.50;;;2.30;99.90;;;;;;4995076;28;21121;-69
2024/01/07 11:16:41;;;;;;;8.97;3.90;;;1.40;99.90;;;;;;4996395;28;20451;-69
2024/01/07 11:19:07;;;;;;;7.17;3.50;;;;;;;;;;4995091;28;20732;-70
2024/01/07 11:21:32;;;;;;;6.47;3.40;;;2.20;99.90;;;;;;5005956;28;20429;-70
2024/01/07 11:23:58;;;;;;;10.93;4.50;;;2.30;99.90;;;;;;4990357;28;20892;-70
2024/01/07 11:26:23;;;;;;;6.97;3.50;;;2.30;99.90;;;;;;4988611;28;20208;-70
2024/01/07 11:28:52;;;;;;;5.27;3.30;;;2.20;99.90;;;;;;4994627;28;20230;-70
2024/01/07 11:31:20;;;;;;;7.77;4.33;;;2.20;99.90;;;;;;5000552;28;20783;-70
2024/01/07 11:33:46;;;;;;;9.23;4.43;;;2.20;99.90;;;;;;4981948;28;20935;-70
2024/01/07 11:36:14;;;;;;;4.90;3.13;;;2.20;99.90;;;;;;4993819;28;20907;-70
2024/01/07 11:38:49;;;;;;;8.17;4.00;;;2.30;99.90;;;;;;5000219;28;20427;-69
2024/01/07 11:41:16;;;;;;;8.07;4.47;;;2.20;99.90;;;;;;5002419;28;20410;-69
2024/01/07 11:44:00;;;;;;;6.60;3.43;;;4.40;99.90;;;;;;4994170;28;20514;-70
2024/01/07 11:46:28;;;;;;;7.83;3.87;;;2.00;99.90;;;;;;4992856;28;20470;-70
2024/01/07 11:48:58;;;;;;;5.57;3.60;;;2.10;99.90;;;;;;4996474;28;20422;-69
2024/01/07 11:51:25;;;;;;;8.17;4.23;;;2.10;99.90;;;;;;4996088;28;20481;-69
2024/01/07 11:53:51;;;;;;;10.67;5.13;;;;;;;;;;4998513;28;20419;-69
2024/01/07 11:56:16;;;;;;;9.70;4.27;;;2.10;99.90;;;;;;4991513;28;20452;-69
2024/01/07 11:58:42;;;;;;;6.30;3.57;;;;;;;;;;4987769;28;20188;-69
2024/01/07 12:01:08;;;;;;;8.50;3.90;;;2.10;99.90;;;;;;4995512;28;20183;-70
2024/01/07 12:03:34;;;;;;;8.30;3.57;;;;;;;;;;5001859;28;20521;-70
2024/01/07 12:05:59;;;;;;;7.70;4.00;;;2.20;99.90;;;;;;4990623;28;21358;-69
2024/01/07 12:08:25;;;;;;;9.20;3.57;;;2.20;99.90;;;;;;4992675;28;20438;-69
2024/01/07 12:10:51;;;;;;;8.73;4.50;;;;;;;;;;4987661;28;21009;-70
2024/01/07 12:13:17;;;;;;;7.13;3.73;;;2.20;99.90;;;;;;4987616;28;20789;-70
2024/01/07 12:15:43;;;;;;;13.57;3.73;;;;;;;;;;5001914;28;20334;-69
2024/01/07 12:18:09;;;;;;;6.30;3.53;;;2.20;99.90;;;;;;4992742;28;20836;-69
2024/01/07 12:20:35;;;;;;;8.63;4.37;;;2.20;99.90;;;;;;4985024;28;20435;-70
2024/01/07 12:23:08;;;;;;;9.20;3.47;;;2.10;99.90;;;;;;4987325;28;20535;-71
2024/01/07 12:25:34;;;;;;;8.90;4.37;;;;;;;;;;4995239;28;20582;-69
2024/01/07 12:27:59;;;;;;;8.67;3.67;;;2.10;99.90;;;;;;4977499;28;20801;-69
2024/01/07 12:30:25;;;;;;;6.63;4.37;;;2.20;99.90;;;;;;4983760;28;20434;-70
2024/01/07 12:32:54;;;;;;;5.57;3.57;;;2.10;99.90;;;;;;4979234;28;20183;-70
2024/01/07 12:35:20;;;;;;;5.80;3.33;;;2.00;99.90;;;;;;4990935;28;20417;-70
2024/01/07 12:37:47;;;;;;;10.00;3.80;;;4.70;99.90;;;;;;4994668;28;20419;-70
2024/01/07 12:40:13;;;;;;;9.27;3.13;;;1.90;99.90;;;;;;4990469;28;20198;-70
2024/01/07 12:42:45;;;;;;;12.90;5.43;;;1.80;99.90;;;;;;5008036;28;20411;-71
2024/01/07 12:45:14;;;;;;;9.57;4.50;;;1.90;99.90;;;;;;4991838;28;20535;-69
2024/01/07 12:47:44;;;;;;;15.23;5.07;;;1.90;99.90;;;;;;4991269;28;20850;-69
2024/01/07 12:50:10;;;;;;;4.83;3.40;;;1.90;99.90;;;;;;4981913;28;20645;-68